createdAt,value
2024-03-16T00:00:11.651Z,5.93
2024-03-16T00:02:39.158Z,5.78
2024-03-16T00:05:06.270Z,5.03
2024-03-16T00:07:33.284Z,4.85
2024-03-16T00:10:00.280Z,5.13
2024-03-16T00:12:27.249Z,4.78
2024-03-16T00:17:22.149Z,5.07
2024-03-16T00:19:48.971Z,5.18
2024-03-16T00:22:16.440Z,6.57
2024-03-16T00:24:43.646Z,5.80
2024-03-16T00:27:10.473Z,6.50
2024-03-16T00:29:37.236Z,5.68
2024-03-16T00:32:04.155Z,5.60
2024-03-16T00:34:30.955Z,6.28
2024-03-16T00:36:58.524Z,5.03
2024-03-16T00:39:25.496Z,4.30
2024-03-16T00:41:52.862Z,5.03
2024-03-16T00:44:20.234Z,5.13
2024-03-16T00:46:47.163Z,4.63
2024-03-16T00:49:14.016Z,4.20
2024-03-16T00:51:42.344Z,4.63
2024-03-16T00:54:12.319Z,4.07
2024-03-16T00:56:39.913Z,4.13
2024-03-16T00:59:07.117Z,4.78
2024-03-16T01:01:35.853Z,4.15
2024-03-16T01:04:03.558Z,4.65
2024-03-16T01:06:30.603Z,4.32
2024-03-16T01:08:57.722Z,3.95
2024-03-16T01:11:24.790Z,4.10
2024-03-16T01:13:54.833Z,3.95
2024-03-16T01:16:21.774Z,4.85
2024-03-16T01:18:48.925Z,4.82
2024-03-16T01:21:16.245Z,3.78
2024-03-16T01:23:43.220Z,4.18
2024-03-16T01:26:10.892Z,4.25
2024-03-16T01:28:37.803Z,4.13
2024-03-16T01:31:04.992Z,3.72
2024-03-16T01:33:31.900Z,4.82
2024-03-16T01:35:58.793Z,4.45
2024-03-16T01:38:25.651Z,3.67
2024-03-16T01:40:52.498Z,4.28
2024-03-16T01:43:19.257Z,3.85
2024-03-16T01:45:46.933Z,5.05
2024-03-16T01:48:14.036Z,4.53
2024-03-16T01:50:41.972Z,4.60
2024-03-16T01:53:12.075Z,4.15
2024-03-16T01:55:39.598Z,4.00
2024-03-16T01:58:07.801Z,4.60
2024-03-16T02:00:35.833Z,3.95
2024-03-16T02:03:03.726Z,5.18
2024-03-16T02:05:30.569Z,4.60
2024-03-16T02:07:57.464Z,5.57
2024-03-16T02:10:24.265Z,4.28
2024-03-16T02:12:51.121Z,5.18
2024-03-16T02:15:19.305Z,4.55
2024-03-16T02:17:47.505Z,4.85
2024-03-16T02:20:17.552Z,4.82
2024-03-16T02:22:44.809Z,4.90
2024-03-16T02:25:12.082Z,4.93
2024-03-16T02:27:39.077Z,4.97
2024-03-16T02:30:11.734Z,5.03
2024-03-16T02:32:38.785Z,4.13
2024-03-16T02:35:09.171Z,4.72
2024-03-16T02:37:36.981Z,5.20
2024-03-16T02:40:07.408Z,4.22
2024-03-16T02:42:36.780Z,4.65
2024-03-16T02:45:04.487Z,5.50
2024-03-16T02:47:31.354Z,5.97
2024-03-16T02:49:58.333Z,4.88
2024-03-16T02:52:25.085Z,5.30
2024-03-16T02:54:51.812Z,5.22
2024-03-16T02:57:18.616Z,5.80
2024-03-16T02:59:45.390Z,5.68
2024-03-16T03:02:12.239Z,5.07
2024-03-16T03:04:39.009Z,5.75
2024-03-16T03:07:06.261Z,6.50
2024-03-16T03:09:34.450Z,5.70
2024-03-16T03:12:01.446Z,6.45
2024-03-16T03:14:28.304Z,5.20
2024-03-16T03:16:55.067Z,5.28
2024-03-16T03:19:21.986Z,5.53
2024-03-16T03:21:48.832Z,5.10
2024-03-16T03:24:15.637Z,5.45
2024-03-16T03:26:42.448Z,5.53
2024-03-16T03:29:09.164Z,5.93
2024-03-16T03:31:36.020Z,6.47
2024-03-16T03:34:02.900Z,5.28
2024-03-16T03:36:30.426Z,5.97
2024-03-16T03:38:57.210Z,5.95
2024-03-16T03:41:24.014Z,5.85
2024-03-16T03:44:00.666Z,6.35
2024-03-16T03:46:41.235Z,5.65
2024-03-16T03:49:26.964Z,6.75
2024-03-16T03:51:58.728Z,6.22
2024-03-16T03:54:25.935Z,5.72
2024-03-16T03:56:52.950Z,6.40
2024-03-16T03:59:20.273Z,6.10
2024-03-16T04:01:48.077Z,6.30
2024-03-16T04:04:15.125Z,5.90
2024-03-16T04:06:45.734Z,7.00
2024-03-16T04:09:13.423Z,5.90
2024-03-16T04:11:43.259Z,5.93
2024-03-16T04:14:09.976Z,5.82
2024-03-16T04:16:36.777Z,5.80
2024-03-16T04:19:04.403Z,5.55
2024-03-16T04:21:31.540Z,5.80
2024-03-16T04:23:58.383Z,6.07
2024-03-16T04:26:25.857Z,6.40
2024-03-16T04:28:52.666Z,5.57
2024-03-16T04:31:19.476Z,5.95
2024-03-16T04:33:46.451Z,5.95
2024-03-16T04:36:13.928Z,5.55
2024-03-16T04:38:40.916Z,5.78
2024-03-16T04:41:07.700Z,6.30
2024-03-16T04:43:35.197Z,5.65
2024-03-16T04:46:02.081Z,5.82
2024-03-16T04:48:28.979Z,6.15
2024-03-16T04:50:57.200Z,5.70
2024-03-16T04:53:24.214Z,5.68
2024-03-16T04:55:53.576Z,5.38
2024-03-16T04:58:20.606Z,5.97
2024-03-16T05:00:47.630Z,6.03
2024-03-16T05:03:14.553Z,5.90
2024-03-16T05:05:41.297Z,6.22
2024-03-16T05:08:08.954Z,6.47
2024-03-16T05:10:36.240Z,4.88
2024-03-16T05:13:03.173Z,6.35
2024-03-16T05:15:30.238Z,6.40
2024-03-16T05:17:57.238Z,5.72
2024-03-16T05:20:24.003Z,5.45
2024-03-16T05:22:50.783Z,6.85
2024-03-16T05:25:17.672Z,5.53
2024-03-16T05:27:44.697Z,5.32
2024-03-16T05:30:12.644Z,5.30
2024-03-16T05:32:39.608Z,5.95
2024-03-16T05:35:09.200Z,5.20
2024-03-16T05:37:36.845Z,5.63
2024-03-16T05:40:04.299Z,5.70
2024-03-16T05:45:00.437Z,5.65
2024-03-16T05:47:27.516Z,6.25
2024-03-16T05:49:55.007Z,5.20
2024-03-16T05:52:21.757Z,4.93
2024-03-16T05:54:48.557Z,5.78
2024-03-16T05:57:15.382Z,6.45
2024-03-16T05:59:42.196Z,5.32
2024-03-16T06:02:09.004Z,5.22
2024-03-16T06:04:36.522Z,5.07
2024-03-16T06:07:03.508Z,5.72
2024-03-16T06:09:30.369Z,5.38
2024-03-16T06:11:57.147Z,5.72
2024-03-16T06:14:23.907Z,6.63
2024-03-16T06:16:50.774Z,5.38
2024-03-16T06:19:17.653Z,5.40
2024-03-16T06:21:44.577Z,6.20
2024-03-16T06:24:11.424Z,4.85
2024-03-16T06:26:39.786Z,6.55
2024-03-16T06:29:06.967Z,6.20
2024-03-16T06:31:35.452Z,4.90
2024-03-16T06:34:06.209Z,5.43
2024-03-16T06:36:37.663Z,5.43
2024-03-16T06:39:11.343Z,5.10
2024-03-16T06:41:38.706Z,5.60
2024-03-16T06:44:05.542Z,5.50
2024-03-16T06:46:35.014Z,5.15
2024-03-16T06:49:07.409Z,5.60
2024-03-16T06:51:35.441Z,6.05
2024-03-16T06:54:02.282Z,6.45
2024-03-16T06:56:29.101Z,7.28
2024-03-16T06:58:56.801Z,6.47
2024-03-16T07:01:25.606Z,5.40
2024-03-16T07:03:52.890Z,6.25
2024-03-16T07:06:19.785Z,7.25
2024-03-16T07:08:46.547Z,6.18
2024-03-16T07:11:13.260Z,6.45
2024-03-16T07:13:40.022Z,5.55
2024-03-16T07:16:12.423Z,5.68
2024-03-16T07:18:39.278Z,5.75
2024-03-16T07:21:06.043Z,5.93
2024-03-16T07:23:32.777Z,5.68
2024-03-16T07:25:59.712Z,6.40
2024-03-16T07:28:26.652Z,5.88
2024-03-16T07:30:57.283Z,5.78
2024-03-16T07:33:24.111Z,5.90
2024-03-16T07:35:52.024Z,7.38
2024-03-16T07:38:19.008Z,5.72
2024-03-16T07:40:45.930Z,6.18
2024-03-16T07:43:12.730Z,5.80
2024-03-16T07:45:43.578Z,6.07
2024-03-16T07:48:11.079Z,6.40
2024-03-16T07:50:37.974Z,6.38
2024-03-16T07:53:04.936Z,7.03
2024-03-16T07:55:32.059Z,5.93
2024-03-16T07:57:58.884Z,6.15
2024-03-16T08:00:25.667Z,6.45
2024-03-16T08:02:52.496Z,6.93
2024-03-16T08:05:19.342Z,6.45
2024-03-16T08:07:48.446Z,7.40
2024-03-16T08:10:15.276Z,7.30
2024-03-16T08:12:42.685Z,6.22
2024-03-16T08:15:09.704Z,7.00
2024-03-16T08:17:36.506Z,6.60
2024-03-16T08:20:04.221Z,7.47
2024-03-16T08:22:31.095Z,7.63
2024-03-16T08:24:58.055Z,6.55
2024-03-16T08:27:30.282Z,6.63
2024-03-16T08:30:00.059Z,7.25
2024-03-16T08:32:26.918Z,7.47
2024-03-16T08:34:55.904Z,7.43
2024-03-16T08:37:22.852Z,7.93
2024-03-16T08:39:49.834Z,7.80
2024-03-16T08:42:16.859Z,8.52
2024-03-16T08:44:45.096Z,8.10
2024-03-16T08:47:11.801Z,7.78
2024-03-16T08:49:38.581Z,7.85
2024-03-16T08:52:05.537Z,8.40
2024-03-16T08:54:33.776Z,7.95
2024-03-16T08:57:01.418Z,8.75
2024-03-16T08:59:29.227Z,7.95
2024-03-16T09:01:56.118Z,7.53
2024-03-16T09:04:22.962Z,7.45
2024-03-16T09:06:49.760Z,7.10
2024-03-16T09:09:17.558Z,8.35
2024-03-16T09:11:44.882Z,8.20
2024-03-16T09:14:11.768Z,7.75
2024-03-16T09:16:42.230Z,6.93
2024-03-16T09:19:09.470Z,6.68
2024-03-16T09:21:36.702Z,6.68
2024-03-16T09:24:04.639Z,6.97
2024-03-16T09:26:31.760Z,6.90
2024-03-16T09:28:58.527Z,7.10
2024-03-16T09:31:28.522Z,7.38
2024-03-16T09:33:55.433Z,6.85
2024-03-16T09:36:22.153Z,5.95
2024-03-16T09:38:49.188Z,5.78
2024-03-16T09:41:20.098Z,6.28
